Cancun, Mexico

11:53 AM EST on July 02, 2015 (GMT -0500)
Cancun International | | Change Station
CLOSE
Current Station
Airport
Location: Cancun,
Elevation: 16 ft
Nearby Weather Stations

Elev 16 ft 21.04 °N, 86.88 °W | Updated 11 minutes ago

Scattered Clouds
Scattered Clouds
88 °F
Feels Like 100 °F
N
15
Wind Variable Wind from ESE

Today
High -- | Low -- °F
--% Chance of Precip.
Yesterday
High -- | Low -- °F
Precip. -- in
6:09 AM 7:33 PM
Full, 100% visible
Pressure 30.04 in
Visibility 7.0 miles
Clouds Scattered Clouds 1800 ft
Scattered Clouds 30000 ft
Heat Index 100 °F
Dew Point 77 °F
Humidity 70%
Rainfall 0.00 in
Snow Depth Not available.
UV 13 out of 12
Pollen Not available.
Air Quality Not available.
Flu Activity Not available.
METAR MMUN 021642Z 11013KT 7SM SCT018TCU SCT300 31/25 A3004 RMK 8/208 HZY

More Conditions Fewer Conditions

Pressure 30.04 in
Visibility 7.0 miles
Clouds Scattered Clouds 1800 ft
Scattered Clouds 30000 ft
Heat Index 100 °F
Dew Point 77 °F
Humidity 70%
Rainfall 0.00 in
Snow Depth Not available.
UV 13 out of 12
Pollen Not available.
Air Quality Not available.
Flu Activity Not available.
METAR MMUN 021642Z 11013KT 7SM SCT018TCU SCT300 31/25 A3004 RMK 8/208 HZY

More Conditions Fewer Conditions

10-Day Weather Forecast

×

Almanac

Astronomy

Jul. 02, 2015 Rise Set
Actual Time
Civil Twilight
Nautical Twilight
Astronomical Twilight
Moon
Length of Visible Light
Length of Day
Tomorrow will be .
, % of the Moon is Illuminated

Today's Extremes

Country Highs Country Lows

Community

WunderPhotos

Upload Photos

1,834,498 photos uploaded!

WunderBlogs® & News

Nearby

Air Quality

  Air Quality AQ Index Pollutant
Not available.

Snow Depth

Station Depth Elevation

Earthquake Activity

City Distance Mag. Time & Date
Minimum magnitude displayed is 2.5.

Coastal Water Temperatures

Place Temperature

Stations

Nearby Weather Stations

Station Location Temp. Windchill Dew Point Humidity Wind Precip. Elev Updated Type